Time;durP1;ratioP1;P1;durP2;ratioP2;P2;SDS_P1;SDS_P2;PMS_P1;PMS_P2;Temp;Humidity;BMP_temperature;BMP_pressure;BME280_temperature;BME280_humidity;BME280_pressure;Samples;Min_cycle;Max_cycle;Signal;HPM_P1;HPM_P2
2023/03/31 03:01:05;;;;;;;0.50;0.40;;;18.90;51.20;;;;;;5963575;22;45720;-61
2023/03/31 03:03:36;;;;;;;0.75;0.38;;;18.90;51.30;;;;;;4986200;28;45399;-60
2023/03/31 03:06:04;;;;;;;0.68;0.40;;;18.90;51.20;;;;;;4954503;28;45026;-58
2023/03/31 03:08:54;;;;;;;1.00;0.52;;;18.90;51.20;;;;;;5009667;28;44992;-60
2023/03/31 03:11:35;;;;;;;1.10;0.65;;;18.90;51.20;;;;;;5018649;28;45013;-60
2023/03/31 03:14:27;;;;;;;0.60;0.40;;;18.90;51.20;;;;;;5023507;28;45039;-61
2023/03/31 03:16:57;;;;;;;0.40;0.38;;;18.90;51.20;;;;;;4978638;28;45244;-60
2023/03/31 03:19:22;;;;;;;0.93;0.60;;;18.90;51.10;;;;;;4974091;28;47428;-60
2023/03/31 03:21:48;;;;;;;0.70;0.40;;;18.90;51.10;;;;;;4979370;28;45766;-59
2023/03/31 03:24:15;;;;;;;0.60;0.45;;;18.90;51.20;;;;;;4997661;28;45158;-58
2023/03/31 03:26:41;;;;;;;0.70;0.40;;;18.90;51.10;;;;;;4988458;28;45391;-61
2023/03/31 03:29:07;;;;;;;0.88;0.40;;;18.90;51.10;;;;;;4999501;28;45992;-60
2023/03/31 03:31:33;;;;;;;0.85;0.38;;;18.90;51.10;;;;;;4984951;28;45057;-59
2023/03/31 03:33:59;;;;;;;0.50;0.40;;;18.90;51.10;;;;;;5026748;28;44973;-60
2023/03/31 03:36:25;;;;;;;0.55;0.30;;;18.90;51.10;;;;;;4994118;28;45788;-59
2023/03/31 03:38:50;;;;;;;0.77;0.43;;;18.90;51.10;;;;;;5022955;28;45220;-60
2023/03/31 03:41:16;;;;;;;0.60;0.50;;;18.90;51.10;;;;;;5016590;28;45060;-59
2023/03/31 03:43:41;;;;;;;1.05;0.50;;;18.90;51.10;;;;;;5026242;28;45489;-60
2023/03/31 03:46:07;;;;;;;0.60;0.32;;;18.90;51.20;;;;;;4994564;28;45311;-59
2023/03/31 03:48:32;;;;;;;0.47;0.47;;;18.80;51.10;;;;;;5013742;28;45939;-57
2023/03/31 03:50:59;;;;;;;0.68;0.50;;;18.90;51.20;;;;;;5018204;28;45104;-60
2023/03/31 03:53:25;;;;;;;0.82;0.50;;;18.90;51.20;;;;;;5004940;28;45765;-61
2023/03/31 03:55:50;;;;;;;0.60;0.40;;;18.90;51.10;;;;;;5011614;28;45296;-60
2023/03/31 03:58:17;;;;;;;0.40;0.40;;;18.90;51.10;;;;;;5013699;28;46561;-61
2023/03/31 04:00:44;;;;;;;0.55;0.45;;;18.80;51.10;;;;;;4995560;28;45674;-61
2023/03/31 04:03:10;;;;;;;0.55;0.30;;;18.80;51.10;;;;;;5002955;28;44881;-60
2023/03/31 04:05:35;;;;;;;0.88;0.40;;;18.80;51.10;;;;;;5019477;28;45571;-61
2023/03/31 04:08:01;;;;;;;0.93;0.43;;;18.80;51.10;;;;;;5019871;28;46126;-61
2023/03/31 04:10:27;;;;;;;1.65;0.40;;;18.80;51.10;;;;;;5009926;28;44983;-61
2023/03/31 04:12:53;;;;;;;0.32;0.32;;;18.80;51.10;;;;;;5020082;28;45238;-61
2023/03/31 04:15:21;;;;;;;1.23;0.45;;;18.80;51.10;;;;;;5017385;28;45193;-59
2023/03/31 04:17:49;;;;;;;0.40;0.40;;;18.80;51.10;;;;;;5021708;28;46107;-60
2023/03/31 04:20:15;;;;;;;0.63;0.45;;;18.80;51.10;;;;;;5001299;28;45095;-59
2023/03/31 04:22:41;;;;;;;1.30;0.68;;;18.80;51.70;;;;;;5009896;28;45638;-59
2023/03/31 04:25:15;;;;;;;1.15;0.40;;;18.80;51.10;;;;;;5016723;28;44983;-59
2023/03/31 04:27:54;;;;;;;0.55;0.30;;;18.80;51.10;;;;;;5020053;28;44984;-60
2023/03/31 04:30:24;;;;;;;0.55;0.40;;;18.80;51.20;;;;;;4996722;28;45210;-61
2023/03/31 04:32:57;;;;;;;0.80;0.47;;;18.80;51.10;;;;;;5004160;28;46134;-60
2023/03/31 04:35:24;;;;;;;0.40;0.30;;;18.80;51.10;;;;;;4998491;28;45903;-60
2023/03/31 04:37:51;;;;;;;0.50;0.40;;;18.80;51.10;;;;;;5013786;28;46168;-59
2023/03/31 04:40:17;;;;;;;0.60;0.40;;;18.80;51.10;;;;;;5005100;28;45074;-59
2023/03/31 04:42:43;;;;;;;0.68;0.40;;;18.80;51.10;;;;;;5004931;28;45208;-60
2023/03/31 04:45:09;;;;;;;0.50;0.43;;;18.70;51.10;;;;;;5021318;28;45775;-60
2023/03/31 04:47:36;;;;;;;2.67;0.30;;;18.70;51.10;;;;;;5017530;28;45934;-58
2023/03/31 04:50:01;;;;;;;0.95;0.47;;;18.70;51.20;;;;;;5017632;28;44682;-59
2023/03/31 04:52:27;;;;;;;0.45;0.40;;;18.70;51.10;;;;;;4999610;28;45258;-59
2023/03/31 04:54:52;;;;;;;0.30;0.30;;;18.70;51.10;;;;;;5016632;28;44955;-61
2023/03/31 04:57:18;;;;;;;0.90;0.30;;;18.70;51.10;;;;;;5005501;28;45040;-61
2023/03/31 04:59:44;;;;;;;0.75;0.45;;;18.70;51.20;;;;;;5017587;28;44977;-60
2023/03/31 05:02:10;;;;;;;0.30;0.30;;;18.70;51.20;;;;;;5006320;28;45140;-60
2023/03/31 05:04:36;;;;;;;1.30;0.50;;;18.70;51.20;;;;;;5001156;28;44875;-61
2023/03/31 05:07:02;;;;;;;0.63;0.20;;;18.70;51.20;;;;;;5016863;28;46478;-60
2023/03/31 05:09:28;;;;;;;0.65;0.50;;;18.70;51.20;;;;;;4998870;28;45283;-60
2023/03/31 05:11:53;;;;;;;0.52;0.40;;;18.70;51.20;;;;;;4978659;28;45270;-59
2023/03/31 05:14:22;;;;;;;0.47;0.38;;;18.70;51.20;;;;;;4985140;28;45074;-60
2023/03/31 05:16:47;;;;;;;1.20;0.50;;;18.70;51.20;;;;;;5007369;28;45332;-60
2023/03/31 05:19:13;;;;;;;0.47;0.40;;;18.70;51.20;;;;;;5003885;28;45017;-60
2023/03/31 05:21:39;;;;;;;0.50;0.38;;;18.60;51.10;;;;;;5014333;28;44893;-58
2023/03/31 05:24:05;;;;;;;0.60;0.40;;;18.60;51.20;;;;;;5037947;28;44914;-59
2023/03/31 05:26:30;;;;;;;0.75;0.35;;;18.60;51.10;;;;;;5023834;28;46445;-60
2023/03/31 05:28:56;;;;;;;0.50;0.43;;;18.60;51.20;;;;;;5012962;28;46040;-61
2023/03/31 05:31:21;;;;;;;1.05;0.63;;;18.60;51.20;;;;;;5008569;28;44956;-59
2023/03/31 05:33:47;;;;;;;1.08;0.47;;;18.60;51.20;;;;;;4990009;28;44982;-60
2023/03/31 05:36:14;;;;;;;0.52;0.50;;;18.60;51.20;;;;;;5018513;28;45032;-60
2023/03/31 05:38:40;;;;;;;0.57;0.40;;;18.60;51.20;;;;;;5021800;28;45245;-59
2023/03/31 05:41:08;;;;;;;0.60;0.32;;;18.70;51.20;;;;;;5018404;28;45142;-59
2023/03/31 05:43:34;;;;;;;0.40;0.35;;;18.60;51.20;;;;;;5008208;28;45076;-62
2023/03/31 05:45:59;;;;;;;0.68;0.40;;;18.60;51.10;;;;;;5004172;28;46018;-61
2023/03/31 05:48:25;;;;;;;0.50;0.38;;;18.60;51.10;;;;;;4984988;28;46169;-61
2023/03/31 05:50:51;;;;;;;0.90;0.30;;;18.60;51.20;;;;;;5011830;28;45284;-60
2023/03/31 05:53:16;;;;;;;0.50;0.40;;;18.60;51.20;;;;;;5018828;28;45231;-61
2023/03/31 05:55:42;;;;;;;1.27;0.40;;;18.60;51.20;;;;;;5021797;28;46464;-61
2023/03/31 05:58:07;;;;;;;1.55;0.35;;;18.60;51.20;;;;;;5026415;28;44910;-60
2023/03/31 06:00:34;;;;;;;0.60;0.38;;;18.60;51.20;;;;;;5010329;28;45134;-58
2023/03/31 06:03:00;;;;;;;2.65;1.20;;;18.50;51.20;;;;;;4996193;28;45369;-60
2023/03/31 06:05:26;;;;;;;3.60;0.90;;;18.40;51.40;;;;;;5008474;28;45317;-59
2023/03/31 06:07:52;;;;;;;2.63;0.82;;;18.10;51.60;;;;;;5019449;28;44883;-61
2023/03/31 06:10:18;;;;;;;3.72;1.40;;;17.90;51.90;;;;;;5014439;28;45255;-61
2023/03/31 06:12:44;;;;;;;4.43;1.33;;;17.90;51.90;;;;;;5010310;28;44952;-60
2023/03/31 06:15:10;;;;;;;3.67;0.95;;;18.00;51.80;;;;;;5022211;28;44956;-62
2023/03/31 06:17:35;;;;;;;3.92;1.08;;;18.10;51.60;;;;;;5021370;28;45066;-62
2023/03/31 06:20:01;;;;;;;5.30;1.02;;;18.20;51.50;;;;;;4999833;28;45026;-61
2023/03/31 06:22:26;;;;;;;3.35;1.10;;;18.30;51.30;;;;;;5003242;28;45451;-61
2023/03/31 06:24:52;;;;;;;5.28;0.77;;;18.30;51.20;;;;;;5026713;28;45133;-60
2023/03/31 06:27:17;;;;;;;3.78;0.80;;;18.40;51.10;;;;;;5026769;28;44889;-60
2023/03/31 06:29:43;;;;;;;2.10;1.00;;;18.40;51.10;;;;;;5029271;28;45043;-60
2023/03/31 06:32:08;;;;;;;2.03;0.85;;;18.50;51.10;;;;;;5000403;28;45239;-60
2023/03/31 06:34:34;;;;;;;3.17;1.08;;;18.50;51.00;;;;;;5020381;28;46195;-61
2023/03/31 06:37:00;;;;;;;2.80;0.90;;;18.60;51.00;;;;;;5026894;28;45063;-61
2023/03/31 06:39:25;;;;;;;5.22;1.20;;;18.80;50.90;;;;;;5014559;28;45297;-62
2023/03/31 06:41:51;;;;;;;3.95;0.95;;;19.00;50.50;;;;;;5022103;28;44954;-59
2023/03/31 06:44:18;;;;;;;1.85;0.82;;;19.20;50.20;;;;;;5023098;28;45016;-61
2023/03/31 06:46:43;;;;;;;3.15;0.80;;;19.40;50.00;;;;;;5019717;28;44942;-60
2023/03/31 06:49:09;;;;;;;2.85;0.95;;;19.60;49.70;;;;;;5021555;28;45099;-60
2023/03/31 06:51:34;;;;;;;2.53;0.90;;;19.80;49.60;;;;;;5012703;28;44917;-61
2023/03/31 06:54:00;;;;;;;2.63;0.85;;;19.90;49.50;;;;;;5026432;28;46162;-61
2023/03/31 06:56:26;;;;;;;2.53;0.75;;;20.10;49.40;;;;;;5019377;28;45298;-61
2023/03/31 06:58:52;;;;;;;1.73;0.82;;;20.20;49.20;;;;;;5018038;28;45049;-60
2023/03/31 07:01:17;;;;;;;2.35;0.85;;;20.30;49.00;;;;;;5011711;28;45054;-59
2023/03/31 07:03:43;;;;;;;1.10;0.60;;;20.50;49.10;;;;;;5010472;28;45812;-61
2023/03/31 07:06:09;;;;;;;1.60;0.63;;;20.60;48.90;;;;;;5017090;28;45410;-61
2023/03/31 07:08:35;;;;;;;2.80;1.00;;;20.70;48.80;;;;;;5024160;28;45339;-61
2023/03/31 07:11:00;;;;;;;0.82;0.60;;;20.80;48.60;;;;;;5003659;28;45196;-60
2023/03/31 07:13:26;;;;;;;4.68;1.13;;;21.00;48.60;;;;;;5011977;28;45099;-60
2023/03/31 07:15:52;;;;;;;2.72;0.93;;;21.00;48.50;;;;;;5019791;28;44735;-62
2023/03/31 07:18:18;;;;;;;5.35;0.70;;;21.20;48.40;;;;;;5017101;28;44965;-62
2023/03/31 07:20:43;;;;;;;2.65;0.60;;;21.30;48.40;;;;;;5013138;28;45365;-61
2023/03/31 07:23:09;;;;;;;3.35;0.73;;;21.40;48.30;;;;;;5039215;28;45148;-60
2023/03/31 07:25:35;;;;;;;3.70;0.77;;;21.50;48.20;;;;;;5020866;28;44711;-59
2023/03/31 07:28:00;;;;;;;3.17;0.47;;;21.60;48.10;;;;;;5016934;28;45178;-59
2023/03/31 07:30:26;;;;;;;0.77;0.57;;;21.60;48.00;;;;;;5015596;28;45179;-60
2023/03/31 07:32:53;;;;;;;0.88;0.50;;;21.70;48.00;;;;;;5024945;28;45861;-59
2023/03/31 07:35:19;;;;;;;3.00;0.80;;;21.70;48.00;;;;;;5015755;28;45131;-61
2023/03/31 07:37:45;;;;;;;2.80;0.47;;;21.80;47.90;;;;;;5004737;28;45090;-58
2023/03/31 07:40:14;;;;;;;1.48;0.68;;;21.90;47.90;;;;;;4993252;28;45041;-58
2023/03/31 07:42:40;;;;;;;1.13;0.63;;;22.00;47.80;;;;;;5017112;28;45170;-59
2023/03/31 07:45:06;;;;;;;1.73;0.52;;;22.00;47.80;;;;;;5030583;28;45183;-60
2023/03/31 07:47:32;;;;;;;2.42;0.88;;;22.10;47.80;;;;;;5004873;28;44894;-59
2023/03/31 07:49:58;;;;;;;3.15;0.60;;;22.10;47.60;;;;;;5017695;28;45514;-58
2023/03/31 07:52:23;;;;;;;1.90;0.55;;;22.20;47.60;;;;;;5021134;28;45365;-59
2023/03/31 07:54:49;;;;;;;2.47;0.63;;;22.30;48.20;;;;;;5032317;28;45584;-59
2023/03/31 07:57:16;;;;;;;0.93;0.65;;;22.30;47.60;;;;;;5015477;28;44945;-59
2023/03/31 07:59:41;;;;;;;1.10;0.57;;;22.30;47.50;;;;;;5025205;28;45041;-58
2023/03/31 08:02:10;;;;;;;1.33;0.60;;;22.40;47.40;;;;;;5018336;28;45507;-59
2023/03/31 08:04:35;;;;;;;1.33;0.60;;;22.40;47.40;;;;;;4994804;28;44981;-57
2023/03/31 08:07:01;;;;;;;1.25;0.57;;;22.50;47.40;;;;;;5017147;28;45774;-60
2023/03/31 08:09:26;;;;;;;0.90;0.50;;;22.60;47.40;;;;;;5024544;28;45296;-57
2023/03/31 08:11:52;;;;;;;1.00;0.40;;;22.60;47.40;;;;;;5020433;28;45191;-58
2023/03/31 08:14:17;;;;;;;1.27;0.50;;;22.60;47.30;;;;;;5020073;28;44860;-57
2023/03/31 08:16:43;;;;;;;2.70;0.70;;;22.70;47.30;;;;;;5017438;28;45075;-59
2023/03/31 08:19:08;;;;;;;1.13;0.50;;;22.80;47.20;;;;;;5027268;28;45225;-58
2023/03/31 08:21:34;;;;;;;0.60;0.40;;;22.80;47.20;;;;;;5015334;28;45742;-60
2023/03/31 08:24:00;;;;;;;0.90;0.50;;;22.90;47.10;;;;;;5022336;28;44951;-59
2023/03/31 08:26:25;;;;;;;1.33;0.70;;;23.00;47.10;;;;;;5023671;28;45303;-59
2023/03/31 08:28:51;;;;;;;1.48;0.70;;;23.00;47.00;;;;;;5017403;28;45380;-57
2023/03/31 08:31:18;;;;;;;3.60;0.70;;;23.10;47.00;;;;;;5008836;28;45132;-57
2023/03/31 08:33:44;;;;;;;0.82;0.60;;;23.10;46.90;;;;;;5011155;28;45132;-59
2023/03/31 08:36:10;;;;;;;3.13;0.85;;;23.20;46.90;;;;;;5012954;28;45208;-58
2023/03/31 08:38:45;;;;;;;0.88;0.60;;;23.20;46.80;;;;;;5027329;28;44764;-59
2023/03/31 08:41:29;;;;;;;0.60;0.50;;;23.30;46.80;;;;;;5010114;28;46712;-58
2023/03/31 08:43:55;;;;;;;0.93;0.57;;;23.30;46.40;;;;;;4991096;28;45316;-60
2023/03/31 08:46:20;;;;;;;0.85;0.60;;;23.40;46.70;;;;;;5004270;28;44962;-59
2023/03/31 08:48:49;;;;;;;0.63;0.50;;;23.40;46.70;;;;;;4987256;28;45484;-59
2023/03/31 08:51:20;;;;;;;1.02;0.60;;;23.50;46.60;;;;;;4997366;28;48464;-59
2023/03/31 08:54:02;;;;;;;1.60;0.40;;;23.50;46.60;;;;;;4992811;28;44810;-58
2023/03/31 08:56:27;;;;;;;1.23;0.35;;;23.60;46.40;;;;;;5017744;28;45248;-61
2023/03/31 08:58:54;;;;;;;2.03;0.73;;;23.60;46.60;;;;;;5003716;28;45152;-59
2023/03/31 09:01:32;;;;;;;0.77;0.40;;;23.70;46.60;;;;;;4993919;28;47012;-59
2023/03/31 09:04:13;;;;;;;0.80;0.55;;;23.70;46.30;;;;;;5011023;28;45225;-60
2023/03/31 09:06:49;;;;;;;1.40;0.60;;;23.70;46.30;;;;;;5024036;28;45223;-59
2023/03/31 09:09:27;;;;;;;0.65;0.38;;;23.80;46.30;;;;;;5017814;28;44986;-58
2023/03/31 09:11:54;;;;;;;0.40;0.35;;;23.80;46.30;;;;;;4996738;28;45001;-58
2023/03/31 09:14:30;;;;;;;1.00;0.60;;;23.90;46.40;;;;;;4974115;28;44672;-59
2023/03/31 09:17:25;;;;;;;3.88;0.60;;;23.90;46.30;;;;;;4990479;28;45392;-58
2023/03/31 09:19:55;;;;;;;1.33;0.50;;;24.00;46.10;;;;;;5017915;28;45095;-58
2023/03/31 09:22:40;;;;;;;1.08;0.38;;;24.00;46.40;;;;;;4998890;28;46075;-58
2023/03/31 09:25:29;;;;;;;0.95;0.50;;;24.00;46.10;;;;;;5005034;28;44963;-60
2023/03/31 09:27:56;;;;;;;2.45;0.98;;;24.10;46.10;;;;;;5002541;28;45107;-59
2023/03/31 09:30:33;;;;;;;0.80;0.50;;;24.10;46.20;;;;;;5014718;28;45011;-59
2023/03/31 09:33:27;;;;;;;0.60;0.30;;;24.20;46.10;;;;;;4992344;28;45273;-58
2023/03/31 09:35:52;;;;;;;2.38;0.50;;;24.20;45.90;;;;;;4990420;28;45130;-59
2023/03/31 09:38:18;;;;;;;0.50;0.38;;;24.30;46.20;;;;;;5009727;28;45111;-60
2023/03/31 09:40:43;;;;;;;2.20;0.60;;;24.30;46.10;;;;;;5007692;28;45226;-60
2023/03/31 09:43:20;;;;;;;1.52;0.70;;;24.40;46.10;;;;;;5013816;28;45156;-59
2023/03/31 09:45:46;;;;;;;0.90;0.70;;;24.40;46.00;;;;;;4997117;28;44689;-60
2023/03/31 09:48:14;;;;;;;2.90;0.50;;;24.40;46.10;;;;;;5030681;28;44701;-59
2023/03/31 09:50:45;;;;;;;1.15;0.50;;;24.40;46.00;;;;;;5003521;28;45067;-60
2023/03/31 09:53:17;;;;;;;0.95;0.38;;;24.40;46.00;;;;;;5026069;28;45909;-59
2023/03/31 09:55:44;;;;;;;1.15;0.52;;;24.40;46.10;;;;;;5005160;28;44809;-59
2023/03/31 09:58:14;;;;;;;0.85;0.50;;;24.40;46.30;;;;;;4994462;28;45131;-59
2023/03/31 10:00:56;;;;;;;2.97;0.50;;;24.40;46.20;;;;;;4996361;28;44944;-61
2023/03/31 10:03:22;;;;;;;1.15;0.50;;;24.40;46.00;;;;;;5004788;28;46105;-59
2023/03/31 10:05:50;;;;;;;1.17;0.50;;;24.50;46.20;;;;;;5014553;28;45012;-58
2023/03/31 10:08:15;;;;;;;0.70;0.40;;;24.50;46.10;;;;;;5005699;28;44931;-57
2023/03/31 10:10:46;;;;;;;0.68;0.43;;;24.50;46.10;;;;;;5013990;28;45004;-57
2023/03/31 10:13:15;;;;;;;1.85;0.60;;;24.50;46.00;;;;;;5009690;28;45059;-58
2023/03/31 10:15:40;;;;;;;1.55;0.70;;;24.40;46.10;;;;;;4981526;28;45092;-58
2023/03/31 10:18:14;;;;;;;0.95;0.60;;;24.40;46.20;;;;;;5021207;28;45092;-58
2023/03/31 10:20:43;;;;;;;0.90;0.40;;;24.30;46.20;;;;;;4999628;28;44919;-58
2023/03/31 10:23:21;;;;;;;1.20;0.40;;;24.30;46.40;;;;;;5010499;28;46631;-58
2023/03/31 10:25:47;;;;;;;0.77;0.40;;;24.20;46.50;;;;;;5020958;28;45153;-60
2023/03/31 10:28:15;;;;;;;2.90;0.50;;;24.10;46.70;;;;;;5018038;28;45026;-57
2023/03/31 10:30:41;;;;;;;0.73;0.50;;;24.00;46.70;;;;;;4984445;28;45121;-58
2023/03/31 10:33:12;;;;;;;1.90;0.50;;;24.00;46.90;;;;;;4993356;28;46973;-58
2023/03/31 10:35:37;;;;;;;0.60;0.45;;;23.90;46.90;;;;;;5004985;28;44874;-59
2023/03/31 10:38:05;;;;;;;1.95;0.63;;;23.90;47.00;;;;;;5027480;28;45194;-59
2023/03/31 10:40:31;;;;;;;1.55;0.50;;;23.90;47.10;;;;;;5008467;28;45221;-60
2023/03/31 10:43:12;;;;;;;1.23;0.50;;;23.70;47.10;;;;;;4990231;28;44995;-59
2023/03/31 10:45:48;;;;;;;1.15;0.60;;;23.70;47.10;;;;;;4990899;28;45267;-59
2023/03/31 10:48:22;;;;;;;0.75;0.40;;;23.70;47.20;;;;;;4984982;28;46129;-60
2023/03/31 10:50:48;;;;;;;1.15;0.40;;;23.70;47.30;;;;;;5001639;28;44912;-60
2023/03/31 10:53:14;;;;;;;2.67;0.40;;;23.60;47.30;;;;;;5026918;28;46168;-59
2023/03/31 10:56:00;;;;;;;0.50;0.40;;;23.60;47.30;;;;;;4998205;28;45240;-58
2023/03/31 10:58:39;;;;;;;0.80;0.30;;;23.60;47.30;;;;;;5007439;28;45629;-58
2023/03/31 11:01:24;;;;;;;0.90;0.40;;;23.60;47.40;;;;;;5015705;28;45317;-60
2023/03/31 11:04:15;;;;;;;1.75;0.43;;;23.50;47.40;;;;;;4994022;28;46209;-58
2023/03/31 11:06:56;;;;;;;0.80;0.40;;;23.50;47.50;;;;;;5003666;28;45004;-59
2023/03/31 11:09:37;;;;;;;2.20;0.65;;;23.50;47.50;;;;;;5016471;28;44997;-59
2023/03/31 11:12:15;;;;;;;0.55;0.38;;;23.50;47.50;;;;;;5005058;28;45134;-59
2023/03/31 11:14:58;;;;;;;1.13;0.30;;;23.40;47.50;;;;;;5026201;28;45997;-59
2023/03/31 11:17:26;;;;;;;0.50;0.40;;;23.50;47.60;;;;;;4995929;28;45071;-60
2023/03/31 11:20:06;;;;;;;1.23;0.50;;;23.40;47.60;;;;;;5006509;28;45099;-59
2023/03/31 11:23:14;;;;;;;0.70;0.60;;;23.40;47.60;;;;;;5028483;28;44990;-60
2023/03/31 11:26:04;;;;;;;0.88;0.47;;;23.40;47.70;;;;;;5010324;28;45644;-61
2023/03/31 11:28:41;;;;;;;0.50;0.30;;;23.40;47.70;;;;;;5010994;28;45190;-59
2023/03/31 11:31:28;;;;;;;0.90;0.50;;;23.40;47.70;;;;;;5000415;28;45065;-58
2023/03/31 11:34:09;;;;;;;0.47;0.30;;;23.40;47.80;;;;;;5013950;28;45787;-60
2023/03/31 11:36:59;;;;;;;0.52;0.45;;;23.30;47.70;;;;;;4996148;28;45747;-59
2023/03/31 11:39:27;;;;;;;0.60;0.40;;;23.30;47.70;;;;;;5014141;28;45099;-58
2023/03/31 11:42:14;;;;;;;1.38;0.40;;;23.30;47.80;;;;;;5017227;28;45029;-58
2023/03/31 11:44:42;;;;;;;1.45;0.40;;;23.30;47.90;;;;;;5004315;28;45071;-61
2023/03/31 11:47:18;;;;;;;0.70;0.50;;;23.30;47.80;;;;;;4986260;28;46390;-58
2023/03/31 11:49:53;;;;;;;2.42;0.40;;;23.30;47.90;;;;;;4990066;28;44847;-58
2023/03/31 11:52:28;;;;;;;0.70;0.40;;;23.20;47.80;;;;;;5015287;28;44913;-61
2023/03/31 11:54:59;;;;;;;1.25;0.47;;;23.20;47.80;;;;;;5006387;28;45054;-59
2023/03/31 11:57:32;;;;;;;0.90;0.43;;;23.20;47.90;;;;;;4977259;28;45196;-60
2023/03/31 12:00:05;;;;;;;1.10;0.60;;;23.20;47.90;;;;;;5019434;28;45126;-60
2023/03/31 12:02:53;;;;;;;0.90;0.60;;;23.20;47.90;;;;;;4974714;28;44856;-58
2023/03/31 12:05:19;;;;;;;0.95;0.55;;;23.20;48.10;;;;;;4991765;28;45030;-60
2023/03/31 12:07:50;;;;;;;1.48;0.70;;;23.20;48.00;;;;;;5003907;28;45469;-59
2023/03/31 12:10:19;;;;;;;1.42;0.60;;;23.20;48.00;;;;;;4996569;28;44937;-57
2023/03/31 12:12:55;;;;;;;1.75;0.30;;;23.20;48.00;;;;;;4989504;28;45250;-59
2023/03/31 12:15:38;;;;;;;0.98;0.40;;;23.20;48.10;;;;;;4972965;28;45312;-58
2023/03/31 12:18:21;;;;;;;0.82;0.52;;;23.20;48.10;;;;;;4980279;28;48384;-57
2023/03/31 12:20:49;;;;;;;1.88;0.40;;;23.10;48.00;;;;;;4978317;28;45013;-58
2023/03/31 12:23:18;;;;;;;0.50;0.40;;;23.10;48.10;;;;;;4988193;28;45116;-56
2023/03/31 12:26:08;;;;;;;1.23;0.50;;;23.10;48.10;;;;;;4981960;28;45036;-58
2023/03/31 12:28:36;;;;;;;2.05;0.50;;;23.10;48.10;;;;;;5003346;28;45496;-58
2023/03/31 12:31:02;;;;;;;2.60;0.40;;;23.10;48.10;;;;;;4990172;28;44726;-58
2023/03/31 12:33:38;;;;;;;0.80;0.40;;;23.10;48.20;;;;;;4987224;28;44965;-55
2023/03/31 12:36:29;;;;;;;1.30;0.45;;;23.10;48.20;;;;;;4982857;28;45961;-57
2023/03/31 12:39:25;;;;;;;0.50;0.30;;;23.10;48.20;;;;;;4997098;28;46215;-58
2023/03/31 12:42:03;;;;;;;0.40;0.40;;;23.10;48.20;;;;;;4995666;28;44949;-58
2023/03/31 12:44:32;;;;;;;2.30;0.50;;;23.00;48.20;;;;;;5004385;28;45102;-59
2023/03/31 12:47:20;;;;;;;1.30;0.40;;;23.00;48.20;;;;;;4991062;28;45230;-58
2023/03/31 12:50:11;;;;;;;0.95;0.43;;;23.00;48.20;;;;;;4999789;28;46168;-59
2023/03/31 12:53:15;;;;;;;0.88;0.50;;;23.00;48.30;;;;;;5017450;28;45614;-57
2023/03/31 12:55:46;;;;;;;1.85;0.40;;;23.00;48.30;;;;;;4982667;28;45083;-58
2023/03/31 12:58:25;;;;;;;0.40;0.30;;;23.00;48.30;;;;;;4999890;28;45077;-59
2023/03/31 13:01:06;;;;;;;1.27;0.30;;;23.10;48.40;;;;;;4985197;28;46164;-57
2023/03/31 13:03:41;;;;;;;1.30;0.50;;;23.00;48.30;;;;;;5005429;28;44904;-57
2023/03/31 13:06:10;;;;;;;0.73;0.40;;;23.00;48.30;;;;;;5013825;28;45491;-57
2023/03/31 13:08:56;;;;;;;0.40;0.40;;;23.00;48.40;;;;;;5003558;28;45186;-59
2023/03/31 13:11:35;;;;;;;1.92;0.30;;;23.00;48.40;;;;;;5015063;28;46135;-59
2023/03/31 13:14:20;;;;;;;0.50;0.30;;;23.00;48.40;;;;;;5013751;28;46442;-57
2023/03/31 13:16:45;;;;;;;0.85;0.50;;;23.00;48.40;;;;;;5013409;28;45399;-57
2023/03/31 13:19:22;;;;;;;0.30;0.28;;;23.00;48.40;;;;;;5017478;28;45034;-58
2023/03/31 13:21:58;;;;;;;0.85;0.40;;;23.00;48.40;;;;;;5006701;28;46216;-56
2023/03/31 13:24:24;;;;;;;0.57;0.30;;;23.00;48.50;;;;;;5014603;28;45015;-58
2023/03/31 13:26:52;;;;;;;0.35;0.30;;;23.00;48.50;;;;;;4998950;28;44776;-57
2023/03/31 13:29:25;;;;;;;0.52;0.35;;;23.00;48.50;;;;;;5019825;28;45093;-58
2023/03/31 13:32:00;;;;;;;1.08;0.40;;;23.00;48.50;;;;;;4992352;28;46173;-57
2023/03/31 13:35:02;;;;;;;1.65;0.32;;;23.00;48.50;;;;;;5020376;28;45062;-58
2023/03/31 13:37:53;;;;;;;0.50;0.40;;;22.90;48.50;;;;;;4946819;28;45067;-59
2023/03/31 13:41:12;;;;;;;0.63;0.50;;;22.90;48.50;;;;;;5018329;28;45680;-57
2023/03/31 13:44:02;;;;;;;0.95;0.30;;;23.00;48.50;;;;;;4904155;28;45471;-58
2023/03/31 13:46:44;;;;;;;4.18;0.50;;;22.90;48.50;;;;;;4992779;28;45632;-59
2023/03/31 13:49:51;;;;;;;3.28;0.30;;;22.90;48.50;;;;;;5020466;28;45027;-58
2023/03/31 13:52:42;;;;;;;1.08;0.40;;;22.90;48.60;;;;;;4937010;28;45920;-58
2023/03/31 13:55:31;;;;;;;0.90;0.35;;;22.90;48.50;;;;;;5020853;28;45156;-60
2023/03/31 13:58:09;;;;;;;0.82;0.60;;;22.90;48.50;;;;;;5024300;28;44950;-58
2023/03/31 14:01:01;;;;;;;0.40;0.40;;;22.90;48.60;;;;;;5012249;28;45285;-57
2023/03/31 14:03:33;;;;;;;0.85;0.40;;;22.90;48.60;;;;;;5017928;28;45116;-58
2023/03/31 14:06:17;;;;;;;0.40;0.30;;;22.90;48.60;;;;;;5016926;28;46468;-57
2023/03/31 14:08:45;;;;;;;0.73;0.43;;;22.90;48.60;;;;;;5023517;28;44735;-59
2023/03/31 14:11:30;;;;;;;0.60;0.40;;;22.90;48.60;;;;;;5017620;28;45090;-59
2023/03/31 14:14:15;;;;;;;0.60;0.43;;;22.90;48.60;;;;;;5004047;28;45663;-58
2023/03/31 14:16:44;;;;;;;0.80;0.40;;;22.90;48.60;;;;;;5014447;28;45673;-58
2023/03/31 14:19:48;;;;;;;0.73;0.40;;;22.90;48.60;;;;;;5001441;28;44714;-59
2023/03/31 14:22:16;;;;;;;;;;;22.90;48.60;;;;;;5013970;28;45170;-56
2023/03/31 14:25:03;;;;;;;0.45;0.25;;;22.90;48.70;;;;;;5022018;28;45034;-57
2023/03/31 14:27:59;;;;;;;3.95;0.30;;;22.90;48.70;;;;;;5018976;28;45675;-59
2023/03/31 14:30:47;;;;;;;0.25;0.20;;;22.90;49.30;;;;;;4989038;28;46139;-58
2023/03/31 14:33:34;;;;;;;1.17;0.38;;;22.90;48.70;;;;;;5020446;28;45021;-58
2023/03/31 14:36:14;;;;;;;3.92;0.50;;;22.90;48.90;;;;;;4940262;28;45160;-58
2023/03/31 14:38:40;;;;;;;1.67;0.50;;;22.90;48.70;;;;;;5015219;28;45445;-58
2023/03/31 14:41:06;;;;;;;0.77;0.63;;;22.90;48.70;;;;;;4999322;28;45127;-58
2023/03/31 14:43:33;;;;;;;0.52;0.40;;;22.90;48.70;;;;;;5020473;28;45147;-58
2023/03/31 14:46:04;;;;;;;0.30;0.30;;;22.90;48.70;;;;;;5009535;28;45303;-57
2023/03/31 14:48:37;;;;;;;0.93;0.43;;;22.90;48.70;;;;;;5009812;28;45316;-57
2023/03/31 14:51:07;;;;;;;0.40;0.25;;;22.90;48.70;;;;;;4999513;28;45327;-58
2023/03/31 14:53:35;;;;;;;0.50;0.28;;;22.80;48.80;;;;;;5021427;28;45183;-58
2023/03/31 14:56:05;;;;;;;1.38;0.55;;;22.90;48.70;;;;;;5014390;28;45159;-57
2023/03/31 14:58:33;;;;;;;0.50;0.50;;;22.90;48.80;;;;;;5007847;28;45983;-57
2023/03/31 15:00:59;;;;;;;1.20;0.38;;;22.80;48.70;;;;;;4991016;28;45444;-56
2023/03/31 15:03:25;;;;;;;0.75;0.43;;;22.90;48.80;;;;;;4999462;28;45127;-57
2023/03/31 15:05:50;;;;;;;0.68;0.40;;;22.80;48.70;;;;;;4984768;28;45265;-57
2023/03/31 15:08:18;;;;;;;0.47;0.20;;;22.80;48.80;;;;;;4986198;28;45377;-57
2023/03/31 15:10:47;;;;;;;0.43;0.40;;;22.80;48.80;;;;;;4997107;28;44954;-57
2023/03/31 15:13:19;;;;;;;2.70;0.85;;;22.80;48.90;;;;;;5004578;28;45001;-58
2023/03/31 15:15:45;;;;;;;0.40;0.30;;;22.80;48.90;;;;;;4979149;28;45322;-57
2023/03/31 15:18:14;;;;;;;0.55;0.30;;;22.70;48.90;;;;;;5017633;28;45100;-58
2023/03/31 15:20:41;;;;;;;0.60;0.45;;;22.70;49.00;;;;;;5014260;28;44980;-58
2023/03/31 15:23:23;;;;;;;0.32;0.30;;;22.70;49.00;;;;;;5019202;28;45197;-59
2023/03/31 15:25:53;;;;;;;0.88;0.40;;;22.60;49.00;;;;;;5020160;28;44937;-57
2023/03/31 15:28:19;;;;;;;0.60;0.50;;;22.60;49.00;;;;;;5021544;28;46009;-60
2023/03/31 15:30:45;;;;;;;0.82;0.40;;;22.60;49.00;;;;;;5015414;28;44980;-58
2023/03/31 15:33:24;;;;;;;2.63;0.50;;;22.60;49.10;;;;;;5021314;28;44913;-58
2023/03/31 15:35:49;;;;;;;0.68;0.30;;;22.60;49.10;;;;;;5016799;28;44940;-59
2023/03/31 15:38:19;;;;;;;0.75;0.30;;;22.50;49.10;;;;;;5022101;28;45959;-59
2023/03/31 15:40:48;;;;;;;0.65;0.35;;;22.50;49.10;;;;;;4985190;28;44906;-59
2023/03/31 15:43:16;;;;;;;0.93;0.50;;;22.50;49.20;;;;;;5007201;28;45899;-58
2023/03/31 15:45:57;;;;;;;1.40;0.38;;;22.50;49.20;;;;;;4998312;28;45421;-59
2023/03/31 15:48:33;;;;;;;2.15;0.40;;;22.40;49.20;;;;;;5003613;28;45083;-58
2023/03/31 15:51:24;;;;;;;1.77;0.70;;;22.40;49.20;;;;;;5014960;28;45003;-58
2023/03/31 15:53:53;;;;;;;1.05;0.38;;;22.40;49.30;;;;;;5015407;28;44938;-58
2023/03/31 15:56:29;;;;;;;1.25;0.30;;;22.40;49.30;;;;;;5015941;28;45524;-59
2023/03/31 15:58:59;;;;;;;1.23;0.40;;;22.40;49.40;;;;;;5019398;28;46229;-58
2023/03/31 16:01:31;;;;;;;1.63;0.50;;;22.40;49.40;;;;;;5004399;28;44945;-58
2023/03/31 16:03:57;;;;;;;0.40;0.40;;;22.30;49.40;;;;;;5005049;28;45135;-58
2023/03/31 16:06:34;;;;;;;1.15;0.65;;;22.30;49.40;;;;;;4998258;28;45757;-57
2023/03/31 16:09:16;;;;;;;1.30;0.47;;;22.30;49.40;;;;;;5005813;28;46234;-58
2023/03/31 16:11:44;;;;;;;0.40;0.20;;;22.20;49.50;;;;;;4994598;28;45051;-59